sensor_id;sensor_type;location;lat;lon;timestamp;P1;durP1;ratioP1;P2;durP2;ratioP2
71202;SDS011;58929;47.490;19.090;2023-04-16T00:01:41;21.80;;;14.98;;
71202;SDS011;58929;47.490;19.090;2023-04-16T00:04:11;22.05;;;14.60;;
71202;SDS011;58929;47.490;19.090;2023-04-16T00:06:39;18.60;;;14.00;;
71202;SDS011;58929;47.490;19.090;2023-04-16T00:09:07;20.45;;;14.40;;
71202;SDS011;58929;47.490;19.090;2023-04-16T00:11:35;20.80;;;14.38;;
71202;SDS011;58929;47.490;19.090;2023-04-16T00:14:03;22.98;;;16.08;;
71202;SDS011;58929;47.490;19.090;2023-04-16T00:16:31;19.25;;;14.40;;
71202;SDS011;58929;47.490;19.090;2023-04-16T00:18:59;20.95;;;14.95;;
71202;SDS011;58929;47.490;19.090;2023-04-16T00:21:28;20.83;;;15.18;;
71202;SDS011;58929;47.490;19.090;2023-04-16T00:23:56;22.60;;;15.38;;
71202;SDS011;58929;47.490;19.090;2023-04-16T00:26:24;21.10;;;15.10;;
71202;SDS011;58929;47.490;19.090;2023-04-16T00:28:52;20.05;;;15.10;;
71202;SDS011;58929;47.490;19.090;2023-04-16T00:31:25;23.13;;;14.68;;
71202;SDS011;58929;47.490;19.090;2023-04-16T00:33:54;21.55;;;14.60;;
71202;SDS011;58929;47.490;19.090;2023-04-16T00:36:22;18.23;;;13.77;;
71202;SDS011;58929;47.490;19.090;2023-04-16T00:38:52;18.92;;;14.52;;
71202;SDS011;58929;47.490;19.090;2023-04-16T00:41:20;19.42;;;14.98;;
71202;SDS011;58929;47.490;19.090;2023-04-16T00:43:48;22.88;;;14.65;;
71202;SDS011;58929;47.490;19.090;2023-04-16T00:46:17;25.23;;;13.70;;
71202;SDS011;58929;47.490;19.090;2023-04-16T00:48:46;15.85;;;12.07;;
71202;SDS011;58929;47.490;19.090;2023-04-16T00:51:15;14.75;;;11.70;;
71202;SDS011;58929;47.490;19.090;2023-04-16T00:53:44;15.30;;;12.27;;
71202;SDS011;58929;47.490;19.090;2023-04-16T00:56:13;18.42;;;11.88;;
71202;SDS011;58929;47.490;19.090;2023-04-16T00:58:43;15.75;;;10.63;;
71202;SDS011;58929;47.490;19.090;2023-04-16T01:01:11;13.88;;;11.25;;
71202;SDS011;58929;47.490;19.090;2023-04-16T01:03:42;16.13;;;12.23;;
71202;SDS011;58929;47.490;19.090;2023-04-16T01:06:10;19.02;;;11.48;;
71202;SDS011;58929;47.490;19.090;2023-04-16T01:08:39;14.65;;;11.55;;
71202;SDS011;58929;47.490;19.090;2023-04-16T01:11:07;16.70;;;11.20;;
71202;SDS011;58929;47.490;19.090;2023-04-16T01:13:36;13.90;;;11.32;;
71202;SDS011;58929;47.490;19.090;2023-04-16T01:16:05;17.40;;;12.15;;
71202;SDS011;58929;47.490;19.090;2023-04-16T01:18:34;15.15;;;12.05;;
71202;SDS011;58929;47.490;19.090;2023-04-16T01:21:04;13.73;;;11.15;;
71202;SDS011;58929;47.490;19.090;2023-04-16T01:23:32;19.15;;;11.90;;
71202;SDS011;58929;47.490;19.090;2023-04-16T01:26:01;16.27;;;11.15;;
71202;SDS011;58929;47.490;19.090;2023-04-16T01:28:28;18.20;;;11.57;;
71202;SDS011;58929;47.490;19.090;2023-04-16T01:30:56;14.95;;;11.65;;
71202;SDS011;58929;47.490;19.090;2023-04-16T01:33:39;16.00;;;11.57;;
71202;SDS011;58929;47.490;19.090;2023-04-16T01:36:09;17.08;;;11.20;;
71202;SDS011;58929;47.490;19.090;2023-04-16T01:38:37;14.93;;;11.18;;
71202;SDS011;58929;47.490;19.090;2023-04-16T01:41:05;14.60;;;11.20;;
71202;SDS011;58929;47.490;19.090;2023-04-16T01:43:34;12.57;;;9.65;;
71202;SDS011;58929;47.490;19.090;2023-04-16T01:46:12;13.20;;;10.23;;
71202;SDS011;58929;47.490;19.090;2023-04-16T01:48:40;13.57;;;10.27;;
71202;SDS011;58929;47.490;19.090;2023-04-16T01:51:11;12.32;;;10.18;;
71202;SDS011;58929;47.490;19.090;2023-04-16T01:53:39;11.45;;;9.68;;
71202;SDS011;58929;47.490;19.090;2023-04-16T01:56:07;13.23;;;9.48;;
71202;SDS011;58929;47.490;19.090;2023-04-16T01:58:36;13.10;;;9.68;;
71202;SDS011;58929;47.490;19.090;2023-04-16T02:01:04;12.98;;;9.90;;
71202;SDS011;58929;47.490;19.090;2023-04-16T02:03:32;15.30;;;9.95;;
71202;SDS011;58929;47.490;19.090;2023-04-16T02:06:02;12.82;;;9.63;;
71202;SDS011;58929;47.490;19.090;2023-04-16T02:08:31;9.98;;;8.80;;
71202;SDS011;58929;47.490;19.090;2023-04-16T02:10:59;11.82;;;9.07;;
71202;SDS011;58929;47.490;19.090;2023-04-16T02:13:28;13.52;;;9.82;;
71202;SDS011;58929;47.490;19.090;2023-04-16T02:15:56;11.77;;;9.65;;
71202;SDS011;58929;47.490;19.090;2023-04-16T02:18:36;13.60;;;9.80;;
71202;SDS011;58929;47.490;19.090;2023-04-16T02:21:04;13.45;;;8.93;;
71202;SDS011;58929;47.490;19.090;2023-04-16T02:23:34;11.15;;;8.93;;
71202;SDS011;58929;47.490;19.090;2023-04-16T02:26:03;11.10;;;8.75;;
71202;SDS011;58929;47.490;19.090;2023-04-16T02:28:31;12.80;;;9.27;;
71202;SDS011;58929;47.490;19.090;2023-04-16T02:30:59;12.98;;;9.68;;
71202;SDS011;58929;47.490;19.090;2023-04-16T02:33:33;14.48;;;9.13;;
71202;SDS011;58929;47.490;19.090;2023-04-16T02:36:02;12.50;;;9.10;;
71202;SDS011;58929;47.490;19.090;2023-04-16T02:38:30;10.52;;;8.48;;
71202;SDS011;58929;47.490;19.090;2023-04-16T02:41:00;11.05;;;8.18;;
71202;SDS011;58929;47.490;19.090;2023-04-16T02:43:28;13.82;;;9.68;;
71202;SDS011;58929;47.490;19.090;2023-04-16T02:45:55;14.10;;;9.93;;
71202;SDS011;58929;47.490;19.090;2023-04-16T02:48:24;11.63;;;8.93;;
71202;SDS011;58929;47.490;19.090;2023-04-16T02:50:53;10.50;;;8.68;;
71202;SDS011;58929;47.490;19.090;2023-04-16T02:53:21;11.40;;;8.15;;
71202;SDS011;58929;47.490;19.090;2023-04-16T02:55:49;11.38;;;9.05;;
71202;SDS011;58929;47.490;19.090;2023-04-16T02:58:20;11.18;;;9.50;;
71202;SDS011;58929;47.490;19.090;2023-04-16T03:00:50;11.80;;;9.52;;
71202;SDS011;58929;47.490;19.090;2023-04-16T03:03:18;11.70;;;9.40;;
71202;SDS011;58929;47.490;19.090;2023-04-16T03:05:46;13.63;;;9.65;;
71202;SDS011;58929;47.490;19.090;2023-04-16T03:08:15;11.13;;;8.93;;
71202;SDS011;58929;47.490;19.090;2023-04-16T03:10:43;13.35;;;9.52;;
71202;SDS011;58929;47.490;19.090;2023-04-16T03:13:12;12.77;;;9.25;;
71202;SDS011;58929;47.490;19.090;2023-04-16T03:15:47;9.80;;;8.73;;
71202;SDS011;58929;47.490;19.090;2023-04-16T03:18:16;13.95;;;10.57;;
71202;SDS011;58929;47.490;19.090;2023-04-16T03:20:44;12.05;;;9.13;;
71202;SDS011;58929;47.490;19.090;2023-04-16T03:23:12;15.00;;;10.38;;
71202;SDS011;58929;47.490;19.090;2023-04-16T03:25:40;15.40;;;11.00;;
71202;SDS011;58929;47.490;19.090;2023-04-16T03:28:10;17.33;;;9.77;;
71202;SDS011;58929;47.490;19.090;2023-04-16T03:30:37;14.77;;;10.77;;
71202;SDS011;58929;47.490;19.090;2023-04-16T03:33:08;14.95;;;11.63;;
71202;SDS011;58929;47.490;19.090;2023-04-16T03:35:36;16.02;;;9.55;;
71202;SDS011;58929;47.490;19.090;2023-04-16T03:38:04;16.65;;;11.50;;
71202;SDS011;58929;47.490;19.090;2023-04-16T03:40:32;13.77;;;10.55;;
71202;SDS011;58929;47.490;19.090;2023-04-16T03:43:00;16.30;;;10.73;;
71202;SDS011;58929;47.490;19.090;2023-04-16T03:45:28;11.52;;;10.27;;
71202;SDS011;58929;47.490;19.090;2023-04-16T03:47:56;15.70;;;10.48;;
71202;SDS011;58929;47.490;19.090;2023-04-16T03:50:26;17.85;;;10.73;;
71202;SDS011;58929;47.490;19.090;2023-04-16T03:52:54;16.33;;;11.57;;
71202;SDS011;58929;47.490;19.090;2023-04-16T03:55:22;15.00;;;11.32;;
71202;SDS011;58929;47.490;19.090;2023-04-16T03:57:50;14.18;;;10.40;;
71202;SDS011;58929;47.490;19.090;2023-04-16T04:00:18;15.13;;;11.43;;
71202;SDS011;58929;47.490;19.090;2023-04-16T04:02:56;14.75;;;10.15;;
71202;SDS011;58929;47.490;19.090;2023-04-16T04:05:27;14.57;;;11.43;;
71202;SDS011;58929;47.490;19.090;2023-04-16T04:07:58;13.65;;;10.25;;
71202;SDS011;58929;47.490;19.090;2023-04-16T04:10:27;14.05;;;10.93;;
71202;SDS011;58929;47.490;19.090;2023-04-16T04:12:56;11.88;;;9.50;;
71202;SDS011;58929;47.490;19.090;2023-04-16T04:15:24;13.57;;;9.63;;
71202;SDS011;58929;47.490;19.090;2023-04-16T04:17:53;13.50;;;9.63;;
71202;SDS011;58929;47.490;19.090;2023-04-16T04:20:21;13.20;;;10.13;;
71202;SDS011;58929;47.490;19.090;2023-04-16T04:22:52;20.75;;;14.35;;
71202;SDS011;58929;47.490;19.090;2023-04-16T04:25:23;27.40;;;17.15;;
71202;SDS011;58929;47.490;19.090;2023-04-16T04:27:51;24.25;;;15.00;;
71202;SDS011;58929;47.490;19.090;2023-04-16T04:30:19;13.18;;;10.48;;
71202;SDS011;58929;47.490;19.090;2023-04-16T04:32:47;11.57;;;9.75;;
71202;SDS011;58929;47.490;19.090;2023-04-16T04:35:15;15.45;;;10.63;;
71202;SDS011;58929;47.490;19.090;2023-04-16T04:37:43;13.85;;;9.98;;
71202;SDS011;58929;47.490;19.090;2023-04-16T04:40:17;14.68;;;10.80;;
71202;SDS011;58929;47.490;19.090;2023-04-16T04:42:45;17.65;;;10.98;;
71202;SDS011;58929;47.490;19.090;2023-04-16T04:45:13;12.27;;;9.13;;
71202;SDS011;58929;47.490;19.090;2023-04-16T04:47:42;12.45;;;10.15;;
71202;SDS011;58929;47.490;19.090;2023-04-16T04:50:09;11.30;;;8.95;;
71202;SDS011;58929;47.490;19.090;2023-04-16T04:52:40;12.45;;;8.80;;
71202;SDS011;58929;47.490;19.090;2023-04-16T04:55:08;13.00;;;8.82;;
71202;SDS011;58929;47.490;19.090;2023-04-16T04:57:37;12.95;;;9.23;;
71202;SDS011;58929;47.490;19.090;2023-04-16T05:00:06;13.10;;;9.55;;
71202;SDS011;58929;47.490;19.090;2023-04-16T05:02:43;10.40;;;8.93;;
71202;SDS011;58929;47.490;19.090;2023-04-16T05:05:11;12.93;;;9.77;;
71202;SDS011;58929;47.490;19.090;2023-04-16T05:07:39;12.73;;;10.45;;
71202;SDS011;58929;47.490;19.090;2023-04-16T05:10:07;12.23;;;9.60;;
71202;SDS011;58929;47.490;19.090;2023-04-16T05:12:35;14.32;;;10.50;;
71202;SDS011;58929;47.490;19.090;2023-04-16T05:15:05;12.68;;;10.43;;
71202;SDS011;58929;47.490;19.090;2023-04-16T05:17:33;13.90;;;10.27;;
71202;SDS011;58929;47.490;19.090;2023-04-16T05:20:01;13.88;;;9.18;;
71202;SDS011;58929;47.490;19.090;2023-04-16T05:22:29;11.80;;;9.82;;
71202;SDS011;58929;47.490;19.090;2023-04-16T05:24:57;12.00;;;8.82;;
71202;SDS011;58929;47.490;19.090;2023-04-16T05:27:25;11.85;;;8.88;;
71202;SDS011;58929;47.490;19.090;2023-04-16T05:29:53;9.68;;;8.20;;
71202;SDS011;58929;47.490;19.090;2023-04-16T05:32:23;12.30;;;9.13;;
71202;SDS011;58929;47.490;19.090;2023-04-16T05:34:51;11.73;;;8.15;;
71202;SDS011;58929;47.490;19.090;2023-04-16T05:37:19;11.80;;;8.55;;
71202;SDS011;58929;47.490;19.090;2023-04-16T05:39:47;10.77;;;8.18;;
71202;SDS011;58929;47.490;19.090;2023-04-16T05:42:15;11.10;;;8.68;;
71202;SDS011;58929;47.490;19.090;2023-04-16T05:44:43;9.43;;;8.25;;
71202;SDS011;58929;47.490;19.090;2023-04-16T05:47:11;11.10;;;8.18;;
71202;SDS011;58929;47.490;19.090;2023-04-16T05:49:40;12.00;;;8.23;;
71202;SDS011;58929;47.490;19.090;2023-04-16T05:52:08;8.50;;;7.25;;
71202;SDS011;58929;47.490;19.090;2023-04-16T05:54:36;10.05;;;7.68;;
71202;SDS011;58929;47.490;19.090;2023-04-16T05:57:04;9.05;;;6.78;;
71202;SDS011;58929;47.490;19.090;2023-04-16T05:59:32;9.75;;;7.10;;
71202;SDS011;58929;47.490;19.090;2023-04-16T06:02:00;8.63;;;6.50;;
71202;SDS011;58929;47.490;19.090;2023-04-16T06:04:28;9.23;;;7.22;;
71202;SDS011;58929;47.490;19.090;2023-04-16T06:06:58;9.90;;;6.57;;
71202;SDS011;58929;47.490;19.090;2023-04-16T06:09:26;9.38;;;7.22;;
71202;SDS011;58929;47.490;19.090;2023-04-16T06:11:54;9.23;;;6.90;;
71202;SDS011;58929;47.490;19.090;2023-04-16T06:14:23;14.60;;;11.05;;
71202;SDS011;58929;47.490;19.090;2023-04-16T06:16:51;7.55;;;6.60;;
71202;SDS011;58929;47.490;19.090;2023-04-16T06:19:19;12.30;;;7.32;;
71202;SDS011;58929;47.490;19.090;2023-04-16T06:21:47;9.20;;;7.13;;
71202;SDS011;58929;47.490;19.090;2023-04-16T06:24:16;9.82;;;7.00;;
71202;SDS011;58929;47.490;19.090;2023-04-16T06:26:44;8.68;;;6.45;;
71202;SDS011;58929;47.490;19.090;2023-04-16T06:29:12;9.18;;;6.93;;
71202;SDS011;58929;47.490;19.090;2023-04-16T06:31:40;10.18;;;7.82;;
71202;SDS011;58929;47.490;19.090;2023-04-16T06:34:07;10.75;;;7.75;;
71202;SDS011;58929;47.490;19.090;2023-04-16T06:36:35;11.15;;;8.35;;
71202;SDS011;58929;47.490;19.090;2023-04-16T06:39:04;11.07;;;7.82;;
71202;SDS011;58929;47.490;19.090;2023-04-16T06:41:33;14.10;;;9.00;;
71202;SDS011;58929;47.490;19.090;2023-04-16T06:44:01;10.50;;;7.55;;
71202;SDS011;58929;47.490;19.090;2023-04-16T06:46:29;10.60;;;7.75;;
71202;SDS011;58929;47.490;19.090;2023-04-16T06:48:57;11.50;;;7.75;;
71202;SDS011;58929;47.490;19.090;2023-04-16T06:51:25;11.57;;;7.55;;
71202;SDS011;58929;47.490;19.090;2023-04-16T06:53:53;8.57;;;6.75;;
71202;SDS011;58929;47.490;19.090;2023-04-16T06:56:21;10.52;;;7.57;;
71202;SDS011;58929;47.490;19.090;2023-04-16T06:58:50;10.18;;;7.57;;
71202;SDS011;58929;47.490;19.090;2023-04-16T07:01:18;9.93;;;7.97;;
71202;SDS011;58929;47.490;19.090;2023-04-16T07:03:46;11.98;;;7.28;;
71202;SDS011;58929;47.490;19.090;2023-04-16T07:06:14;10.50;;;7.72;;
71202;SDS011;58929;47.490;19.090;2023-04-16T07:08:42;10.77;;;7.05;;
71202;SDS011;58929;47.490;19.090;2023-04-16T07:11:10;8.98;;;6.32;;
71202;SDS011;58929;47.490;19.090;2023-04-16T07:13:38;9.05;;;6.53;;
71202;SDS011;58929;47.490;19.090;2023-04-16T07:16:08;7.75;;;6.28;;
71202;SDS011;58929;47.490;19.090;2023-04-16T07:18:36;8.90;;;6.68;;
71202;SDS011;58929;47.490;19.090;2023-04-16T07:21:05;8.82;;;6.72;;
71202;SDS011;58929;47.490;19.090;2023-04-16T07:23:32;7.40;;;6.22;;
71202;SDS011;58929;47.490;19.090;2023-04-16T07:26:00;9.20;;;6.05;;
71202;SDS011;58929;47.490;19.090;2023-04-16T07:28:28;7.72;;;6.20;;
71202;SDS011;58929;47.490;19.090;2023-04-16T07:30:56;7.30;;;6.00;;
71202;SDS011;58929;47.490;19.090;2023-04-16T07:33:25;10.18;;;6.03;;
71202;SDS011;58929;47.490;19.090;2023-04-16T07:35:53;10.30;;;6.55;;
71202;SDS011;58929;47.490;19.090;2023-04-16T07:38:22;7.78;;;5.80;;
71202;SDS011;58929;47.490;19.090;2023-04-16T07:40:49;7.07;;;5.82;;
71202;SDS011;58929;47.490;19.090;2023-04-16T07:43:17;7.07;;;5.35;;
71202;SDS011;58929;47.490;19.090;2023-04-16T07:45:45;6.25;;;5.18;;
71202;SDS011;58929;47.490;19.090;2023-04-16T07:48:13;9.82;;;6.32;;
71202;SDS011;58929;47.490;19.090;2023-04-16T07:50:43;10.18;;;6.32;;
71202;SDS011;58929;47.490;19.090;2023-04-16T07:53:11;6.53;;;5.80;;
71202;SDS011;58929;47.490;19.090;2023-04-16T07:55:39;6.25;;;5.47;;
71202;SDS011;58929;47.490;19.090;2023-04-16T07:58:07;6.10;;;5.43;;
71202;SDS011;58929;47.490;19.090;2023-04-16T08:00:36;7.45;;;5.75;;
71202;SDS011;58929;47.490;19.090;2023-04-16T08:03:04;7.35;;;5.72;;
71202;SDS011;58929;47.490;19.090;2023-04-16T08:05:32;5.85;;;4.88;;
71202;SDS011;58929;47.490;19.090;2023-04-16T08:08:01;7.57;;;4.95;;
71202;SDS011;58929;47.490;19.090;2023-04-16T08:10:30;8.70;;;4.82;;
71202;SDS011;58929;47.490;19.090;2023-04-16T08:12:59;5.68;;;4.28;;
71202;SDS011;58929;47.490;19.090;2023-04-16T08:15:27;7.68;;;4.25;;
71202;SDS011;58929;47.490;19.090;2023-04-16T08:17:55;5.13;;;3.67;;
71202;SDS011;58929;47.490;19.090;2023-04-16T08:20:23;4.28;;;3.60;;
71202;SDS011;58929;47.490;19.090;2023-04-16T08:22:52;5.70;;;4.18;;
71202;SDS011;58929;47.490;19.090;2023-04-16T08:25:22;6.20;;;4.35;;
71202;SDS011;58929;47.490;19.090;2023-04-16T08:27:50;5.05;;;4.18;;
71202;SDS011;58929;47.490;19.090;2023-04-16T08:30:19;6.25;;;4.47;;
71202;SDS011;58929;47.490;19.090;2023-04-16T08:32:47;6.22;;;3.90;;
71202;SDS011;58929;47.490;19.090;2023-04-16T08:35:16;4.00;;;3.60;;
71202;SDS011;58929;47.490;19.090;2023-04-16T08:37:44;5.93;;;3.90;;
71202;SDS011;58929;47.490;19.090;2023-04-16T08:40:12;4.50;;;3.38;;
71202;SDS011;58929;47.490;19.090;2023-04-16T08:42:43;6.25;;;4.00;;
71202;SDS011;58929;47.490;19.090;2023-04-16T08:45:12;6.60;;;3.60;;
71202;SDS011;58929;47.490;19.090;2023-04-16T08:47:41;9.70;;;6.15;;
71202;SDS011;58929;47.490;19.090;2023-04-16T08:50:10;6.60;;;4.82;;
71202;SDS011;58929;47.490;19.090;2023-04-16T08:52:42;4.70;;;3.60;;
71202;SDS011;58929;47.490;19.090;2023-04-16T08:55:12;5.50;;;4.60;;
71202;SDS011;58929;47.490;19.090;2023-04-16T08:57:45;5.93;;;4.72;;
71202;SDS011;58929;47.490;19.090;2023-04-16T09:00:14;6.07;;;4.03;;
71202;SDS011;58929;47.490;19.090;2023-04-16T09:02:42;9.02;;;5.07;;
71202;SDS011;58929;47.490;19.090;2023-04-16T09:05:13;7.10;;;4.38;;
71202;SDS011;58929;47.490;19.090;2023-04-16T09:07:43;5.85;;;3.80;;
71202;SDS011;58929;47.490;19.090;2023-04-16T09:10:11;5.80;;;3.60;;
71202;SDS011;58929;47.490;19.090;2023-04-16T09:12:41;7.85;;;3.60;;
71202;SDS011;58929;47.490;19.090;2023-04-16T09:15:11;5.35;;;4.20;;
71202;SDS011;58929;47.490;19.090;2023-04-16T09:17:39;9.80;;;4.63;;
71202;SDS011;58929;47.490;19.090;2023-04-16T09:20:08;6.88;;;3.70;;
71202;SDS011;58929;47.490;19.090;2023-04-16T09:22:37;5.95;;;4.72;;
71202;SDS011;58929;47.490;19.090;2023-04-16T09:25:05;8.32;;;4.38;;
71202;SDS011;58929;47.490;19.090;2023-04-16T09:27:34;5.35;;;3.65;;
71202;SDS011;58929;47.490;19.090;2023-04-16T09:30:03;6.22;;;4.03;;
71202;SDS011;58929;47.490;19.090;2023-04-16T09:32:48;5.53;;;3.85;;
71202;SDS011;58929;47.490;19.090;2023-04-16T09:35:17;6.45;;;4.05;;
71202;SDS011;58929;47.490;19.090;2023-04-16T09:37:53;10.18;;;3.88;;
71202;SDS011;58929;47.490;19.090;2023-04-16T09:40:25;56.47;;;7.60;;
71202;SDS011;58929;47.490;19.090;2023-04-16T09:42:56;94.30;;;10.63;;
71202;SDS011;58929;47.490;19.090;2023-04-16T09:45:24;30.73;;;5.32;;
71202;SDS011;58929;47.490;19.090;2023-04-16T09:47:53;6.53;;;4.20;;
71202;SDS011;58929;47.490;19.090;2023-04-16T09:50:29;9.32;;;3.65;;
71202;SDS011;58929;47.490;19.090;2023-04-16T09:52:57;8.15;;;3.78;;
71202;SDS011;58929;47.490;19.090;2023-04-16T09:55:28;5.82;;;3.70;;
71202;SDS011;58929;47.490;19.090;2023-04-16T09:57:59;17.08;;;4.28;;
71202;SDS011;58929;47.490;19.090;2023-04-16T10:00:27;10.02;;;3.92;;
71202;SDS011;58929;47.490;19.090;2023-04-16T10:03:03;7.05;;;3.63;;
71202;SDS011;58929;47.490;19.090;2023-04-16T10:05:32;6.63;;;4.05;;
71202;SDS011;58929;47.490;19.090;2023-04-16T10:08:00;179.05;;;12.82;;
71202;SDS011;58929;47.490;19.090;2023-04-16T10:10:28;7.47;;;3.60;;
71202;SDS011;58929;47.490;19.090;2023-04-16T10:12:56;11.00;;;4.10;;
71202;SDS011;58929;47.490;19.090;2023-04-16T10:15:24;5.60;;;3.70;;
71202;SDS011;58929;47.490;19.090;2023-04-16T10:17:52;8.52;;;4.28;;
71202;SDS011;58929;47.490;19.090;2023-04-16T10:20:22;6.25;;;3.05;;
71202;SDS011;58929;47.490;19.090;2023-04-16T10:22:50;3.33;;;2.60;;
71202;SDS011;58929;47.490;19.090;2023-04-16T10:25:19;2.55;;;2.35;;
71202;SDS011;58929;47.490;19.090;2023-04-16T10:27:47;6.63;;;3.50;;
71202;SDS011;58929;47.490;19.090;2023-04-16T10:30:16;4.50;;;3.40;;
71202;SDS011;58929;47.490;19.090;2023-04-16T10:32:45;5.40;;;3.13;;
71202;SDS011;58929;47.490;19.090;2023-04-16T10:35:14;6.82;;;3.80;;
71202;SDS011;58929;47.490;19.090;2023-04-16T10:37:43;3.78;;;3.13;;
71202;SDS011;58929;47.490;19.090;2023-04-16T10:40:21;5.22;;;3.17;;
71202;SDS011;58929;47.490;19.090;2023-04-16T10:42:52;5.10;;;3.40;;
71202;SDS011;58929;47.490;19.090;2023-04-16T10:45:25;7.72;;;3.63;;
71202;SDS011;58929;47.490;19.090;2023-04-16T10:47:54;3.35;;;3.05;;
71202;SDS011;58929;47.490;19.090;2023-04-16T10:50:22;4.45;;;2.35;;
71202;SDS011;58929;47.490;19.090;2023-04-16T10:55:37;6.80;;;2.65;;
71202;SDS011;58929;47.490;19.090;2023-04-16T10:58:19;6.43;;;4.53;;
71202;SDS011;58929;47.490;19.090;2023-04-16T11:00:53;2.50;;;1.50;;
71202;SDS011;58929;47.490;19.090;2023-04-16T11:03:21;5.25;;;3.33;;
71202;SDS011;58929;47.490;19.090;2023-04-16T11:05:49;1.23;;;1.00;;
71202;SDS011;58929;47.490;19.090;2023-04-16T11:08:17;2.70;;;1.52;;
71202;SDS011;58929;47.490;19.090;2023-04-16T11:10:46;1.92;;;1.55;;
71202;SDS011;58929;47.490;19.090;2023-04-16T11:13:14;1.85;;;1.23;;
71202;SDS011;58929;47.490;19.090;2023-04-16T11:15:43;5.15;;;1.50;;
71202;SDS011;58929;47.490;19.090;2023-04-16T11:18:11;2.85;;;1.45;;
71202;SDS011;58929;47.490;19.090;2023-04-16T11:20:40;17.38;;;10.57;;
71202;SDS011;58929;47.490;19.090;2023-04-16T11:23:09;3.40;;;2.22;;
71202;SDS011;58929;47.490;19.090;2023-04-16T11:25:39;4.22;;;2.78;;
71202;SDS011;58929;47.490;19.090;2023-04-16T11:28:08;1.48;;;1.20;;
71202;SDS011;58929;47.490;19.090;2023-04-16T11:30:36;2.00;;;1.17;;
71202;SDS011;58929;47.490;19.090;2023-04-16T11:33:06;7.78;;;1.52;;
71202;SDS011;58929;47.490;19.090;2023-04-16T11:35:35;4.43;;;2.33;;
71202;SDS011;58929;47.490;19.090;2023-04-16T11:38:03;1.77;;;1.10;;
71202;SDS011;58929;47.490;19.090;2023-04-16T11:40:32;1.88;;;1.30;;
71202;SDS011;58929;47.490;19.090;2023-04-16T11:43:00;2.00;;;1.52;;
71202;SDS011;58929;47.490;19.090;2023-04-16T11:45:30;2.67;;;1.40;;
71202;SDS011;58929;47.490;19.090;2023-04-16T11:47:58;4.32;;;1.60;;
71202;SDS011;58929;47.490;19.090;2023-04-16T11:50:26;3.10;;;1.25;;
71202;SDS011;58929;47.490;19.090;2023-04-16T11:52:55;5.60;;;2.13;;
71202;SDS011;58929;47.490;19.090;2023-04-16T11:55:23;3.13;;;1.83;;
71202;SDS011;58929;47.490;19.090;2023-04-16T11:57:52;5.00;;;1.90;;
71202;SDS011;58929;47.490;19.090;2023-04-16T12:00:19;1.95;;;1.50;;
71202;SDS011;58929;47.490;19.090;2023-04-16T12:02:52;1.98;;;1.35;;
71202;SDS011;58929;47.490;19.090;2023-04-16T12:05:27;4.07;;;2.35;;
71202;SDS011;58929;47.490;19.090;2023-04-16T12:07:56;3.67;;;1.52;;
71202;SDS011;58929;47.490;19.090;2023-04-16T12:10:24;13.35;;;8.98;;
71202;SDS011;58929;47.490;19.090;2023-04-16T12:12:52;9.15;;;2.10;;
71202;SDS011;58929;47.490;19.090;2023-04-16T12:15:21;2.20;;;1.50;;
71202;SDS011;58929;47.490;19.090;2023-04-16T12:17:53;5.85;;;1.33;;
71202;SDS011;58929;47.490;19.090;2023-04-16T12:20:37;3.05;;;1.23;;
71202;SDS011;58929;47.490;19.090;2023-04-16T12:23:05;6.13;;;1.77;;
71202;SDS011;58929;47.490;19.090;2023-04-16T12:25:34;3.08;;;1.70;;
71202;SDS011;58929;47.490;19.090;2023-04-16T12:28:02;4.80;;;1.30;;
71202;SDS011;58929;47.490;19.090;2023-04-16T12:30:30;2.80;;;1.30;;
71202;SDS011;58929;47.490;19.090;2023-04-16T12:33:16;3.17;;;1.70;;
71202;SDS011;58929;47.490;19.090;2023-04-16T12:35:44;2.55;;;1.70;;
71202;SDS011;58929;47.490;19.090;2023-04-16T12:38:12;4.47;;;2.60;;
71202;SDS011;58929;47.490;19.090;2023-04-16T12:40:41;4.68;;;2.42;;
71202;SDS011;58929;47.490;19.090;2023-04-16T12:43:11;4.07;;;1.60;;
71202;SDS011;58929;47.490;19.090;2023-04-16T12:45:40;2.63;;;1.90;;
71202;SDS011;58929;47.490;19.090;2023-04-16T12:48:09;2.60;;;1.38;;
71202;SDS011;58929;47.490;19.090;2023-04-16T12:50:38;3.83;;;1.35;;
71202;SDS011;58929;47.490;19.090;2023-04-16T12:53:09;2.65;;;1.35;;
71202;SDS011;58929;47.490;19.090;2023-04-16T12:55:38;2.35;;;1.30;;
71202;SDS011;58929;47.490;19.090;2023-04-16T12:58:07;2.88;;;1.20;;
71202;SDS011;58929;47.490;19.090;2023-04-16T13:00:38;1.98;;;1.20;;
71202;SDS011;58929;47.490;19.090;2023-04-16T13:03:06;2.40;;;1.40;;
71202;SDS011;58929;47.490;19.090;2023-04-16T13:05:34;2.85;;;1.40;;
71202;SDS011;58929;47.490;19.090;2023-04-16T13:08:04;4.38;;;1.25;;
71202;SDS011;58929;47.490;19.090;2023-04-16T13:10:32;2.70;;;1.30;;
71202;SDS011;58929;47.490;19.090;2023-04-16T13:13:00;1.67;;;1.10;;
71202;SDS011;58929;47.490;19.090;2023-04-16T13:15:28;3.63;;;1.20;;
71202;SDS011;58929;47.490;19.090;2023-04-16T13:17:56;3.17;;;1.80;;
71202;SDS011;58929;47.490;19.090;2023-04-16T13:20:24;5.45;;;3.83;;
71202;SDS011;58929;47.490;19.090;2023-04-16T13:22:52;6.90;;;4.40;;
71202;SDS011;58929;47.490;19.090;2023-04-16T13:25:22;4.60;;;1.33;;
71202;SDS011;58929;47.490;19.090;2023-04-16T13:27:49;3.78;;;1.20;;
71202;SDS011;58929;47.490;19.090;2023-04-16T13:30:18;6.32;;;1.10;;
71202;SDS011;58929;47.490;19.090;2023-04-16T13:32:46;3.38;;;1.13;;
71202;SDS011;58929;47.490;19.090;2023-04-16T13:35:14;2.75;;;1.20;;
71202;SDS011;58929;47.490;19.090;2023-04-16T13:37:42;8.02;;;1.75;;
71202;SDS011;58929;47.490;19.090;2023-04-16T13:40:10;2.20;;;1.38;;
71202;SDS011;58929;47.490;19.090;2023-04-16T13:42:40;2.00;;;1.60;;
71202;SDS011;58929;47.490;19.090;2023-04-16T13:45:08;2.38;;;1.58;;
71202;SDS011;58929;47.490;19.090;2023-04-16T13:47:37;4.13;;;1.90;;
71202;SDS011;58929;47.490;19.090;2023-04-16T13:50:05;2.10;;;1.30;;
71202;SDS011;58929;47.490;19.090;2023-04-16T13:52:33;2.40;;;1.10;;
71202;SDS011;58929;47.490;19.090;2023-04-16T13:55:01;3.05;;;1.60;;
71202;SDS011;58929;47.490;19.090;2023-04-16T13:57:29;2.60;;;1.20;;
71202;SDS011;58929;47.490;19.090;2023-04-16T13:59:59;2.33;;;1.10;;
71202;SDS011;58929;47.490;19.090;2023-04-16T14:02:30;3.25;;;1.25;;
71202;SDS011;58929;47.490;19.090;2023-04-16T14:04:58;3.08;;;1.58;;
71202;SDS011;58929;47.490;19.090;2023-04-16T14:07:26;1.88;;;1.08;;
71202;SDS011;58929;47.490;19.090;2023-04-16T14:09:54;2.60;;;1.45;;
71202;SDS011;58929;47.490;19.090;2023-04-16T14:12:22;4.85;;;1.50;;
71202;SDS011;58929;47.490;19.090;2023-04-16T14:14:50;3.25;;;1.40;;
71202;SDS011;58929;47.490;19.090;2023-04-16T14:17:20;3.33;;;2.45;;
71202;SDS011;58929;47.490;19.090;2023-04-16T14:19:48;3.53;;;1.40;;
71202;SDS011;58929;47.490;19.090;2023-04-16T14:22:16;5.53;;;2.17;;
71202;SDS011;58929;47.490;19.090;2023-04-16T14:24:45;3.67;;;1.70;;
71202;SDS011;58929;47.490;19.090;2023-04-16T14:27:14;3.20;;;1.88;;
71202;SDS011;58929;47.490;19.090;2023-04-16T14:29:42;2.80;;;1.35;;
71202;SDS011;58929;47.490;19.090;2023-04-16T14:32:12;2.55;;;1.35;;
71202;SDS011;58929;47.490;19.090;2023-04-16T14:34:41;3.13;;;1.55;;
71202;SDS011;58929;47.490;19.090;2023-04-16T14:37:09;2.40;;;1.45;;
71202;SDS011;58929;47.490;19.090;2023-04-16T14:39:37;2.63;;;1.58;;